Aplington, Iowa
Current Conditions -  °F | °C
As of 5:15 AM on Saturday 25 Oct 2014 (Local Time) from KIFA Reporting Station
Clear Clear  
Wind Chill:   Ceiling: Unl
Heat Index:   Visibility: 10mi
Dew Point:   Wind: 7mph
Humidity: 83%   Direction: 310°NW
Pressure: 30.02"   Gusts: NA
Location:  42.58°N, 92.88°W
Report Text: KIFA 251015Z AUTO 31006KT 10SM CLR 09/07 A3002 RMK AO2 T00930065
Loading
Personal Weather Stations






























Interactive Weather Map
Tropical Storm Tracking
New forecast layout! Learn more

10-Day Weather Forecast

Advertisements
Track Severe Weather on mobile